Admiral — WCY6529 — position and weather

sailwx.info

Track history (hours):
 
Tides and Currents Weather Stations Pressure Air Temp Water Temp Dewpoint Dewpoint Depression Visibility Wind Speed Wind Dir Waves Ship Positions

Admiral

Owner: Crowley Marine Services, SEATTLE, WA. More information available from US FCC via Universal Licensing System and Coast Guard Vessel Documentation Center.

Last reported at 2015-Sep-03 14:32 UTC. Time now 2015-Sep-03 15:16 UTC.
Position N 33°45' W 118°13'.

; draft 5.3 m.

Type: Tug. MMSI: 366755020.

Date/timePositionNaut miles runAvg speedWind from/ knotsBaromVisibWave heightAir tempDewpointWater temp
2015-Sep-03 14:32N 33°45' W 118°13'0 0.4
2015-Sep-03 13:33N 33°44' W 118°13'0 0.3
2015-Sep-03 12:06N 33°45' W 118°13'2 2.8
2015-Sep-03 11:32N 33°46' W 118°14'1 1.4
2015-Sep-03 10:32N 33°45' W 118°13'0 0.4
2015-Sep-03 09:32N 33°45' W 118°12'3 3.5
2015-Sep-03 08:32N 33°44' W 118°17'0 0.0
2015-Sep-02 23:29N 33°44' W 118°17'0 0.0
2015-Sep-02 22:23N 33°44' W 118°17'3 3.2
2015-Sep-02 21:32N 33°45' W 118°13'0 0.2
2015-Sep-02 20:32N 33°45' W 118°13'2 1.6
2015-Sep-02 19:33N 33°43' W 118°12'4 3.7
2015-Sep-02 18:32N 33°44' W 118°17'0 0.0
2015-Sep-02 14:33N 33°44' W 118°17'0 0.0
2015-Sep-02 13:34N 33°44' W 118°17'0 0.0
2015-Sep-02 12:34N 33°44' W 118°17'2 1.6
2015-Sep-02 11:34N 33°46' W 118°16'1 0.6
2015-Sep-02 10:34N 33°45' W 118°17'1 0.3
2015-Sep-02 07:25N 33°44' W 118°17'0 0.0
2015-Sep-02 06:04N 33°44' W 118°17'0 0.0
2015-Sep-02 05:33N 33°44' W 118°17'3 1.2
2015-Sep-02 03:18N 33°44' W 118°13'2 2.5
2015-Sep-02 02:34N 33°45' W 118°13'1 1.1
2015-Sep-02 01:33N 33°44' W 118°13'3 3.0
2015-Sep-02 00:33N 33°44' W 118°17'0 0.0
2015-Sep-01 22:25N 33°44' W 118°17'0 0.0
2015-Sep-01 21:33N 33°44' W 118°17'0 0.0
2015-Sep-01 20:11N 33°44' W 118°17'0 0.0
2015-Sep-01 19:33N 33°44' W 118°17'0 0.0
2015-Sep-01 18:33N 33°44' W 118°17'0 0.0
2015-Sep-01 17:33N 33°44' W 118°17'0 0.0
2015-Sep-01 16:34N 33°44' W 118°17'0 0.0
2015-Sep-01 15:33N 33°44' W 118°17'0 0.0
2015-Sep-01 14:33N 33°44' W 118°17'0 0.0
2015-Sep-01 13:32N 33°44' W 118°17'4 3.6
2015-Sep-01 12:32N 33°45' W 118°12'0 0.2
2015-Sep-01 11:33N 33°45' W 118°12'4 0.9
2015-Sep-01 07:33N 33°44' W 118°17'0 0.0
2015-Sep-01 06:32N 33°44' W 118°17'0 0.0
2015-Sep-01 03:30N 33°44' W 118°17'0 0.0
2015-Sep-01 02:33N 33°44' W 118°17'3 1.1
2015-Aug-31 23:28N 33°44' W 118°12'1 0.8
2015-Aug-31 22:34N 33°45' W 118°13'0 0.0
2015-Aug-31 21:34N 33°45' W 118°13'0 0.0
2015-Aug-31 20:33N 33°45' W 118°13'0 0.0
2015-Aug-31 19:33N 33°45' W 118°13'0 0.3
2015-Aug-31 18:33N 33°45' W 118°13'3 2.7
2015-Aug-31 17:33N 33°43' W 118°11'2 1.8
2015-Aug-31 16:31N 33°42' W 118°09'4 4.4
2015-Aug-31 15:34N 33°45' W 118°13'0 0.0
2015-Aug-31 14:33N 33°45' W 118°13'1 0.6
2015-Aug-31 13:30N 33°44' W 118°13'0 0.4
2015-Aug-31 12:32N 33°45' W 118°12'1 1.2
2015-Aug-31 11:33N 33°43' W 118°13'3 3.5
2015-Aug-31 10:33N 33°44' W 118°17'0 0.0
2015-Aug-31 09:33N 33°44' W 118°17'0 0.0
2015-Aug-31 08:33N 33°44' W 118°17'0 0.0
2015-Aug-31 07:31N 33°44' W 118°17'0 0.0
2015-Aug-31 06:28N 33°44' W 118°17'0 0.0
2015-Aug-31 05:31N 33°44' W 118°17'0 0.0
2015-Aug-31 04:33N 33°44' W 118°17'0 0.0
2015-Aug-31 03:31N 33°44' W 118°17'0 0.0
2015-Aug-31 02:29N 33°44' W 118°17'0 0.0
2015-Aug-31 01:32N 33°44' W 118°17'3 3.0
2015-Aug-31 00:33N 33°44' W 118°13'2 2.1
2015-Aug-30 23:33N 33°46' W 118°13'3 3.3
2015-Aug-30 22:33N 33°43' W 118°14'3 2.6
2015-Aug-30 21:33N 33°44' W 118°17'0 0.0
2015-Aug-30 20:31N 33°44' W 118°17'0 0.0
2015-Aug-30 19:33N 33°44' W 118°17'0 0.0
2015-Aug-30 18:33N 33°44' W 118°17'0 0.0
2015-Aug-30 17:33N 33°44' W 118°17'0 0.0
2015-Aug-30 16:27N 33°44' W 118°17'2 2.6
2015-Aug-30 15:33N 33°43' W 118°14'3 3.1
2015-Aug-30 14:33N 33°46' W 118°14'2 2.2
2015-Aug-30 13:27N 33°44' W 118°12'2 2.4
2015-Aug-30 12:33N 33°46' W 118°13'1 1.3
2015-Aug-30 11:34N 33°45' W 118°13'1 1.4
2015-Aug-30 10:33N 33°43' W 118°13'3 3.5
2015-Aug-30 09:33N 33°44' W 118°17'0 0.0
2015-Aug-30 08:33N 33°44' W 118°17'4 3.5
2015-Aug-30 07:33N 33°45' W 118°12'1 0.6
2015-Aug-30 06:33N 33°44' W 118°13'3 2.2
2015-Aug-30 05:07N 33°44' W 118°17'0 0.0
2015-Aug-30 04:32N 33°44' W 118°17'1 1.1
2015-Aug-30 03:33N 33°43' W 118°16'3 2.9
2015-Aug-30 02:33N 33°45' W 118°13'1 0.7
2015-Aug-30 01:33N 33°46' W 118°13'1 0.6
2015-Aug-30 00:33N 33°46' W 118°13'1 1.1
2015-Aug-29 23:30N 33°45' W 118°13'0 0.0
2015-Aug-29 22:34N 33°45' W 118°13'0 0.0
2015-Aug-29 21:33N 33°45' W 118°13'0 0.0
2015-Aug-29 20:29N 33°45' W 118°13'0 0.4
2015-Aug-29 19:32N 33°45' W 118°12'3 2.8
2015-Aug-29 18:33N 33°46' W 118°16'1 0.5
2015-Aug-29 17:33N 33°45' W 118°16'1 1.0
2015-Aug-29 16:32N 33°44' W 118°17'0 0.0
2015-Aug-29 15:32N 33°44' W 118°17'0 0.0
2015-Aug-29 14:29N 33°44' W 118°17'0 0.0
2015-Aug-29 13:09N 33°44' W 118°17'0 0.0
2015-Aug-29 12:32N 33°44' W 118°17'1 1.3
2015-Aug-29 11:33N 33°46' W 118°16'0 0.3
2015-Aug-29 10:33N 33°45' W 118°17'0 0.4
2015-Aug-29 09:33N 33°45' W 118°16'1 0.6
2015-Aug-29 08:30N 33°44' W 118°17'0 0.0
2015-Aug-29 07:32N 33°44' W 118°17'0 0.0
2015-Aug-29 06:29N 33°44' W 118°17'2 2.6
2015-Aug-29 05:33N 33°43' W 118°14'2 2.5
2015-Aug-29 04:33N 33°45' W 118°13'3 3.1
2015-Aug-29 03:33N 33°43' W 118°11'2 2.1
2015-Aug-29 02:32N 33°42' W 118°13'3 3.5
2015-Aug-29 01:33N 33°44' W 118°17'0 0.0
2015-Aug-29 00:33N 33°44' W 118°17'0 0.0
2015-Aug-28 23:33N 33°44' W 118°17'0 0.0
2015-Aug-28 22:33N 33°44' W 118°17'2 1.7
2015-Aug-28 21:33N 33°46' W 118°16'1 1.0
2015-Aug-28 20:33N 33°46' W 118°14'2 1.5
2015-Aug-28 19:34N 33°45' W 118°13'1 1.3
2015-Aug-28 18:33N 33°46' W 118°13'3 3.0
2015-Aug-28 17:33N 33°43' W 118°14'3 2.5
2015-Aug-28 16:33N 33°44' W 118°17'0 0.0
2015-Aug-28 15:33N 33°44' W 118°17'0 0.0
2015-Aug-28 14:32N 33°44' W 118°17'2 2.5
2015-Aug-28 13:33N 33°43' W 118°14'2 2.3
2015-Aug-28 12:33N 33°45' W 118°12'1 1.3
2015-Aug-28 11:32N 33°44' W 118°14'3 2.6
2015-Aug-28 10:33N 33°44' W 118°17'0 0.0
2015-Aug-28 09:33N 33°44' W 118°17'0 0.0
2015-Aug-28 08:32N 33°44' W 118°17'0 0.0
2015-Aug-28 07:29N 33°44' W 118°17'0 0.0
2015-Aug-28 06:16N 33°44' W 118°17'0 0.0
2015-Aug-28 05:33N 33°44' W 118°17'2 1.8
2015-Aug-28 04:33N 33°43' W 118°16'1 0.7
2015-Aug-28 03:33N 33°43' W 118°16'2 2.1
2015-Aug-28 02:33N 33°45' W 118°17'1 1.1
2015-Aug-28 01:33N 33°46' W 118°16'3 2.9
2015-Aug-28 00:33N 33°43' W 118°15'3 2.7
2015-Aug-27 23:30N 33°45' W 118°12'3 3.5
2015-Aug-27 22:33N 33°43' W 118°16'1 1.4
2015-Aug-27 21:33N 33°44' W 118°17'0 0.0
2015-Aug-27 20:33N 33°44' W 118°17'0 0.0
2015-Aug-27 19:33N 33°44' W 118°17'0 0.0
2015-Aug-27 18:33N 33°44' W 118°17'1 0.7
2015-Aug-27 17:32N 33°44' W 118°16'0 0.0
2015-Aug-27 16:30N 33°44' W 118°16'3 3.6
2015-Aug-27 15:34N 33°46' W 118°13'1 0.6
2015-Aug-27 14:34N 33°46' W 118°13'2 1.6
2015-Aug-27 13:33N 33°45' W 118°13'2 2.2
2015-Aug-27 12:34N 33°44' W 118°11'3 3.3
2015-Aug-27 11:33N 33°46' W 118°13'0 0.2
2015-Aug-27 10:33N 33°46' W 118°13'3 3.1
2015-Aug-27 09:33N 33°44' W 118°17'0 0.0
2015-Aug-27 08:34N 33°44' W 118°17'0 0.0
2015-Aug-27 07:33N 33°44' W 118°17'0 0.0
2015-Aug-27 06:33N 33°44' W 118°17'0 0.0
2015-Aug-27 05:34N 33°44' W 118°17'0 0.0
2015-Aug-27 04:33N 33°44' W 118°17'1 1.2
2015-Aug-27 03:33N 33°46' W 118°16'3 2.6
2015-Aug-27 02:33N 33°43' W 118°16'3 3.4
2015-Aug-27 01:34N 33°45' W 118°13'0 0.0
2015-Aug-27 00:34N 33°45' W 118°13'3 2.7
2015-Aug-26 23:34N 33°44' W 118°11'2 2.4
2015-Aug-26 22:34N 33°45' W 118°13'0 0.5
2015-Aug-26 21:33N 33°45' W 118°13'2 1.6
2015-Aug-26 20:33N 33°44' W 118°11'2 1.7
2015-Aug-26 19:33N 33°43' W 118°13'4 3.5
2015-Aug-26 18:33N 33°44' W 118°17'0 0.0
2015-Aug-26 17:33N 33°44' W 118°17'0 0.0
2015-Aug-26 16:33N 33°44' W 118°17'0 0.0
2015-Aug-26 15:33N 33°44' W 118°17'0 0.0
2015-Aug-26 14:33N 33°44' W 118°17'3 2.6
2015-Aug-26 13:33N 33°43' W 118°14'2 2.1
2015-Aug-26 12:34N 33°45' W 118°12'3 2.5
2015-Aug-26 11:33N 33°44' W 118°15'0 0.2
2015-Aug-26 10:33N 33°44' W 118°15'1 0.8
2015-Aug-26 09:33N 33°43' W 118°16'1 1.0
2015-Aug-26 08:33N 33°44' W 118°17'0 0.0
2015-Aug-26 07:33N 33°44' W 118°17'0 0.0
2015-Aug-26 06:33N 33°44' W 118°17'0 0.0
2015-Aug-26 05:33N 33°44' W 118°17'0 0.0
2015-Aug-26 04:28N 33°44' W 118°17'0 0.0
2015-Aug-26 03:32N 33°44' W 118°17'0 0.0
2015-Aug-26 02:34N 33°44' W 118°17'0 0.0
2015-Aug-26 01:33N 33°44' W 118°17'0 0.0
2015-Aug-26 00:33N 33°44' W 118°17'0 0.0
2015-Aug-25 23:33N 33°44' W 118°17'2 1.6
2015-Aug-25 22:33N 33°46' W 118°16'2 2.4
2015-Aug-25 21:34N 33°43' W 118°16'1 1.2
2015-Aug-25 20:33N 33°44' W 118°17'0 0.0
2015-Aug-25 19:30N 33°44' W 118°17'0 0.0
2015-Aug-25 18:31N 33°44' W 118°17'0 0.0
2015-Aug-25 17:31N 33°44' W 118°17'0 0.0
2015-Aug-25 16:33N 33°44' W 118°17'0 0.1
2015-Aug-25 15:34N 33°44' W 118°17'1 1.1
2015-Aug-25 14:34N 33°45' W 118°16'1 1.1
2015-Aug-25 13:33N 33°44' W 118°17'0 0.0
2015-Aug-25 12:33N 33°44' W 118°17'1 1.1
2015-Aug-25 11:34N 33°45' W 118°16'2 1.7
2015-Aug-25 10:34N 33°44' W 118°16'3 3.1
2015-Aug-25 09:33N 33°43' W 118°13'4 3.5
2015-Aug-25 08:33N 33°44' W 118°17'0 0.2
2015-Aug-25 07:33N 33°44' W 118°17'0 0.0
2015-Aug-25 06:33N 33°44' W 118°17'0 0.0
2015-Aug-25 05:33N 33°44' W 118°17'0 0.0
2015-Aug-25 04:33N 33°44' W 118°17'1 0.9
2015-Aug-25 03:33N 33°45' W 118°17'0 0.2
2015-Aug-25 02:33N 33°45' W 118°17'3 3.3
2015-Aug-25 01:33N 33°43' W 118°14'1 1.3
2015-Aug-25 00:34N 33°44' W 118°13'2 2.0
2015-Aug-24 23:33N 33°46' W 118°13'1 0.8
2015-Aug-24 22:34N 33°46' W 118°14'1 1.3
2015-Aug-24 21:34N 33°45' W 118°13'2 1.8
2015-Aug-24 20:33N 33°44' W 118°12'4 3.6
2015-Aug-24 19:23N 33°44' W 118°17'0 0.0
2015-Aug-24 18:24N 33°44' W 118°17'0 0.0
2015-Aug-24 17:28N 33°44' W 118°17'0 0.0
2015-Aug-24 16:34N 33°44' W 118°17'0 0.0
2015-Aug-24 15:33N 33°44' W 118°17'0 0.0
2015-Aug-24 14:33N 33°44' W 118°17'  
Track history (hours):
 
Tides and Currents Weather Stations Pressure Air Temp Water Temp Dewpoint Dewpoint Depression Visibility Wind Speed Wind Dir Waves Ship Positions

Admiral

Owner: Crowley Marine Services, SEATTLE, WA. More information available from US FCC via Universal Licensing System and Coast Guard Vessel Documentation Center.

Last reported at 2015-Sep-03 14:32 UTC. Time now 2015-Sep-03 15:16 UTC.
Position N 33°45' W 118°13'.

; draft 5.3 m.

Type: Tug. MMSI: 366755020.

Date/timePositionNaut miles runAvg speedWind from/ knotsBaromVisibWave heightAir tempDewpointWater temp
2015-Sep-03 14:32N 33°45' W 118°13'0 0.4
2015-Sep-03 13:33N 33°44' W 118°13'0 0.3
2015-Sep-03 12:06N 33°45' W 118°13'2 2.8
2015-Sep-03 11:32N 33°46' W 118°14'1 1.4
2015-Sep-03 10:32N 33°45' W 118°13'0 0.4
2015-Sep-03 09:32N 33°45' W 118°12'3 3.5
2015-Sep-03 08:32N 33°44' W 118°17'0 0.0
2015-Sep-02 23:29N 33°44' W 118°17'0 0.0
2015-Sep-02 22:23N 33°44' W 118°17'3 3.2
2015-Sep-02 21:32N 33°45' W 118°13'0 0.2
2015-Sep-02 20:32N 33°45' W 118°13'2 1.6
2015-Sep-02 19:33N 33°43' W 118°12'4 3.7
2015-Sep-02 18:32N 33°44' W 118°17'0 0.0
2015-Sep-02 14:33N 33°44' W 118°17'0 0.0
2015-Sep-02 13:34N 33°44' W 118°17'0 0.0
2015-Sep-02 12:34N 33°44' W 118°17'2 1.6
2015-Sep-02 11:34N 33°46' W 118°16'1 0.6
2015-Sep-02 10:34N 33°45' W 118°17'1 0.3
2015-Sep-02 07:25N 33°44' W 118°17'0 0.0
2015-Sep-02 06:04N 33°44' W 118°17'0 0.0
2015-Sep-02 05:33N 33°44' W 118°17'3 1.2
2015-Sep-02 03:18N 33°44' W 118°13'2 2.5
2015-Sep-02 02:34N 33°45' W 118°13'1 1.1
2015-Sep-02 01:33N 33°44' W 118°13'3 3.0
2015-Sep-02 00:33N 33°44' W 118°17'0 0.0
2015-Sep-01 22:25N 33°44' W 118°17'0 0.0
2015-Sep-01 21:33N 33°44' W 118°17'0 0.0
2015-Sep-01 20:11N 33°44' W 118°17'0 0.0
2015-Sep-01 19:33N 33°44' W 118°17'0 0.0
2015-Sep-01 18:33N 33°44' W 118°17'0 0.0
2015-Sep-01 17:33N 33°44' W 118°17'0 0.0
2015-Sep-01 16:34N 33°44' W 118°17'0 0.0
2015-Sep-01 15:33N 33°44' W 118°17'0 0.0
2015-Sep-01 14:33N 33°44' W 118°17'0 0.0
2015-Sep-01 13:32N 33°44' W 118°17'4 3.6
2015-Sep-01 12:32N 33°45' W 118°12'0 0.2
2015-Sep-01 11:33N 33°45' W 118°12'4 0.9
2015-Sep-01 07:33N 33°44' W 118°17'0 0.0
2015-Sep-01 06:32N 33°44' W 118°17'0 0.0
2015-Sep-01 03:30N 33°44' W 118°17'0 0.0
2015-Sep-01 02:33N 33°44' W 118°17'3 1.1
2015-Aug-31 23:28N 33°44' W 118°12'1 0.8
2015-Aug-31 22:34N 33°45' W 118°13'0 0.0
2015-Aug-31 21:34N 33°45' W 118°13'0 0.0
2015-Aug-31 20:33N 33°45' W 118°13'0 0.0
2015-Aug-31 19:33N 33°45' W 118°13'0 0.3
2015-Aug-31 18:33N 33°45' W 118°13'3 2.7
2015-Aug-31 17:33N 33°43' W 118°11'2 1.8
2015-Aug-31 16:31N 33°42' W 118°09'4 4.4
2015-Aug-31 15:34N 33°45' W 118°13'0 0.0
2015-Aug-31 14:33N 33°45' W 118°13'1 0.6
2015-Aug-31 13:30N 33°44' W 118°13'0 0.4
2015-Aug-31 12:32N 33°45' W 118°12'1 1.2
2015-Aug-31 11:33N 33°43' W 118°13'3 3.5
2015-Aug-31 10:33N 33°44' W 118°17'0 0.0
2015-Aug-31 09:33N 33°44' W 118°17'0 0.0
2015-Aug-31 08:33N 33°44' W 118°17'0 0.0
2015-Aug-31 07:31N 33°44' W 118°17'0 0.0
2015-Aug-31 06:28N 33°44' W 118°17'0 0.0
2015-Aug-31 05:31N 33°44' W 118°17'0 0.0
2015-Aug-31 04:33N 33°44' W 118°17'0 0.0
2015-Aug-31 03:31N 33°44' W 118°17'0 0.0
2015-Aug-31 02:29N 33°44' W 118°17'0 0.0
2015-Aug-31 01:32N 33°44' W 118°17'3 3.0
2015-Aug-31 00:33N 33°44' W 118°13'2 2.1
2015-Aug-30 23:33N 33°46' W 118°13'3 3.3
2015-Aug-30 22:33N 33°43' W 118°14'3 2.6
2015-Aug-30 21:33N 33°44' W 118°17'0 0.0
2015-Aug-30 20:31N 33°44' W 118°17'0 0.0
2015-Aug-30 19:33N 33°44' W 118°17'0 0.0
2015-Aug-30 18:33N 33°44' W 118°17'0 0.0
2015-Aug-30 17:33N 33°44' W 118°17'0 0.0
2015-Aug-30 16:27N 33°44' W 118°17'2 2.6
2015-Aug-30 15:33N 33°43' W 118°14'3 3.1
2015-Aug-30 14:33N 33°46' W 118°14'2 2.2
2015-Aug-30 13:27N 33°44' W 118°12'2 2.4
2015-Aug-30 12:33N 33°46' W 118°13'1 1.3
2015-Aug-30 11:34N 33°45' W 118°13'1 1.4
2015-Aug-30 10:33N 33°43' W 118°13'3 3.5
2015-Aug-30 09:33N 33°44' W 118°17'0 0.0
2015-Aug-30 08:33N 33°44' W 118°17'4 3.5
2015-Aug-30 07:33N 33°45' W 118°12'1 0.6
2015-Aug-30 06:33N 33°44' W 118°13'3 2.2
2015-Aug-30 05:07N 33°44' W 118°17'0 0.0
2015-Aug-30 04:32N 33°44' W 118°17'1 1.1
2015-Aug-30 03:33N 33°43' W 118°16'3 2.9
2015-Aug-30 02:33N 33°45' W 118°13'1 0.7
2015-Aug-30 01:33N 33°46' W 118°13'1 0.6
2015-Aug-30 00:33N 33°46' W 118°13'1 1.1
2015-Aug-29 23:30N 33°45' W 118°13'0 0.0
2015-Aug-29 22:34N 33°45' W 118°13'0 0.0
2015-Aug-29 21:33N 33°45' W 118°13'0 0.0
2015-Aug-29 20:29N 33°45' W 118°13'0 0.4
2015-Aug-29 19:32N 33°45' W 118°12'3 2.8
2015-Aug-29 18:33N 33°46' W 118°16'1 0.5
2015-Aug-29 17:33N 33°45' W 118°16'1 1.0
2015-Aug-29 16:32N 33°44' W 118°17'0 0.0
2015-Aug-29 15:32N 33°44' W 118°17'0 0.0
2015-Aug-29 14:29N 33°44' W 118°17'0 0.0
2015-Aug-29 13:09N 33°44' W 118°17'0 0.0
2015-Aug-29 12:32N 33°44' W 118°17'1 1.3
2015-Aug-29 11:33N 33°46' W 118°16'0 0.3
2015-Aug-29 10:33N 33°45' W 118°17'0 0.4
2015-Aug-29 09:33N 33°45' W 118°16'1 0.6
2015-Aug-29 08:30N 33°44' W 118°17'0 0.0
2015-Aug-29 07:32N 33°44' W 118°17'0 0.0
2015-Aug-29 06:29N 33°44' W 118°17'2 2.6
2015-Aug-29 05:33N 33°43' W 118°14'2 2.5
2015-Aug-29 04:33N 33°45' W 118°13'3 3.1
2015-Aug-29 03:33N 33°43' W 118°11'2 2.1
2015-Aug-29 02:32N 33°42' W 118°13'3 3.5
2015-Aug-29 01:33N 33°44' W 118°17'0 0.0
2015-Aug-29 00:33N 33°44' W 118°17'0 0.0
2015-Aug-28 23:33N 33°44' W 118°17'0 0.0
2015-Aug-28 22:33N 33°44' W 118°17'2 1.7
2015-Aug-28 21:33N 33°46' W 118°16'1 1.0
2015-Aug-28 20:33N 33°46' W 118°14'2 1.5
2015-Aug-28 19:34N 33°45' W 118°13'1 1.3
2015-Aug-28 18:33N 33°46' W 118°13'3 3.0
2015-Aug-28 17:33N 33°43' W 118°14'3 2.5
2015-Aug-28 16:33N 33°44' W 118°17'0 0.0
2015-Aug-28 15:33N 33°44' W 118°17'0 0.0
2015-Aug-28 14:32N 33°44' W 118°17'2 2.5
2015-Aug-28 13:33N 33°43' W 118°14'2 2.3
2015-Aug-28 12:33N 33°45' W 118°12'1 1.3
2015-Aug-28 11:32N 33°44' W 118°14'3 2.6
2015-Aug-28 10:33N 33°44' W 118°17'0 0.0
2015-Aug-28 09:33N 33°44' W 118°17'0 0.0
2015-Aug-28 08:32N 33°44' W 118°17'0 0.0
2015-Aug-28 07:29N 33°44' W 118°17'0 0.0
2015-Aug-28 06:16N 33°44' W 118°17'0 0.0
2015-Aug-28 05:33N 33°44' W 118°17'2 1.8
2015-Aug-28 04:33N 33°43' W 118°16'1 0.7
2015-Aug-28 03:33N 33°43' W 118°16'2 2.1
2015-Aug-28 02:33N 33°45' W 118°17'1 1.1
2015-Aug-28 01:33N 33°46' W 118°16'3 2.9
2015-Aug-28 00:33N 33°43' W 118°15'3 2.7
2015-Aug-27 23:30N 33°45' W 118°12'3 3.5
2015-Aug-27 22:33N 33°43' W 118°16'1 1.4
2015-Aug-27 21:33N 33°44' W 118°17'0 0.0
2015-Aug-27 20:33N 33°44' W 118°17'0 0.0
2015-Aug-27 19:33N 33°44' W 118°17'0 0.0
2015-Aug-27 18:33N 33°44' W 118°17'1 0.7
2015-Aug-27 17:32N 33°44' W 118°16'0 0.0
2015-Aug-27 16:30N 33°44' W 118°16'3 3.6
2015-Aug-27 15:34N 33°46' W 118°13'1 0.6
2015-Aug-27 14:34N 33°46' W 118°13'2 1.6
2015-Aug-27 13:33N 33°45' W 118°13'2 2.2
2015-Aug-27 12:34N 33°44' W 118°11'3 3.3
2015-Aug-27 11:33N 33°46' W 118°13'0 0.2
2015-Aug-27 10:33N 33°46' W 118°13'3 3.1
2015-Aug-27 09:33N 33°44' W 118°17'0 0.0
2015-Aug-27 08:34N 33°44' W 118°17'0 0.0
2015-Aug-27 07:33N 33°44' W 118°17'0 0.0
2015-Aug-27 06:33N 33°44' W 118°17'0 0.0
2015-Aug-27 05:34N 33°44' W 118°17'0 0.0
2015-Aug-27 04:33N 33°44' W 118°17'1 1.2
2015-Aug-27 03:33N 33°46' W 118°16'3 2.6
2015-Aug-27 02:33N 33°43' W 118°16'3 3.4
2015-Aug-27 01:34N 33°45' W 118°13'0 0.0
2015-Aug-27 00:34N 33°45' W 118°13'3 2.7
2015-Aug-26 23:34N 33°44' W 118°11'2 2.4
2015-Aug-26 22:34N 33°45' W 118°13'0 0.5
2015-Aug-26 21:33N 33°45' W 118°13'2 1.6
2015-Aug-26 20:33N 33°44' W 118°11'2 1.7
2015-Aug-26 19:33N 33°43' W 118°13'4 3.5
2015-Aug-26 18:33N 33°44' W 118°17'0 0.0
2015-Aug-26 17:33N 33°44' W 118°17'0 0.0
2015-Aug-26 16:33N 33°44' W 118°17'0 0.0
2015-Aug-26 15:33N 33°44' W 118°17'0 0.0
2015-Aug-26 14:33N 33°44' W 118°17'3 2.6
2015-Aug-26 13:33N 33°43' W 118°14'2 2.1
2015-Aug-26 12:34N 33°45' W 118°12'3 2.5
2015-Aug-26 11:33N 33°44' W 118°15'0 0.2
2015-Aug-26 10:33N 33°44' W 118°15'1 0.8
2015-Aug-26 09:33N 33°43' W 118°16'1 1.0
2015-Aug-26 08:33N 33°44' W 118°17'0 0.0
2015-Aug-26 07:33N 33°44' W 118°17'0 0.0
2015-Aug-26 06:33N 33°44' W 118°17'0 0.0
2015-Aug-26 05:33N 33°44' W 118°17'0 0.0
2015-Aug-26 04:28N 33°44' W 118°17'0 0.0
2015-Aug-26 03:32N 33°44' W 118°17'0 0.0
2015-Aug-26 02:34N 33°44' W 118°17'0 0.0
2015-Aug-26 01:33N 33°44' W 118°17'0 0.0
2015-Aug-26 00:33N 33°44' W 118°17'0 0.0
2015-Aug-25 23:33N 33°44' W 118°17'2 1.6
2015-Aug-25 22:33N 33°46' W 118°16'2 2.4
2015-Aug-25 21:34N 33°43' W 118°16'1 1.2
2015-Aug-25 20:33N 33°44' W 118°17'0 0.0
2015-Aug-25 19:30N 33°44' W 118°17'0 0.0
2015-Aug-25 18:31N 33°44' W 118°17'0 0.0
2015-Aug-25 17:31N 33°44' W 118°17'0 0.0
2015-Aug-25 16:33N 33°44' W 118°17'0 0.1
2015-Aug-25 15:34N 33°44' W 118°17'1 1.1
2015-Aug-25 14:34N 33°45' W 118°16'1 1.1
2015-Aug-25 13:33N 33°44' W 118°17'0 0.0
2015-Aug-25 12:33N 33°44' W 118°17'1 1.1
2015-Aug-25 11:34N 33°45' W 118°16'2 1.7
2015-Aug-25 10:34N 33°44' W 118°16'3 3.1
2015-Aug-25 09:33N 33°43' W 118°13'4 3.5
2015-Aug-25 08:33N 33°44' W 118°17'0 0.2
2015-Aug-25 07:33N 33°44' W 118°17'0 0.0
2015-Aug-25 06:33N 33°44' W 118°17'0 0.0
2015-Aug-25 05:33N 33°44' W 118°17'0 0.0
2015-Aug-25 04:33N 33°44' W 118°17'1 0.9
2015-Aug-25 03:33N 33°45' W 118°17'0 0.2
2015-Aug-25 02:33N 33°45' W 118°17'3 3.3
2015-Aug-25 01:33N 33°43' W 118°14'1 1.3
2015-Aug-25 00:34N 33°44' W 118°13'2 2.0
2015-Aug-24 23:33N 33°46' W 118°13'1 0.8
2015-Aug-24 22:34N 33°46' W 118°14'1 1.3
2015-Aug-24 21:34N 33°45' W 118°13'2 1.8
2015-Aug-24 20:33N 33°44' W 118°12'4 3.6
2015-Aug-24 19:23N 33°44' W 118°17'0 0.0
2015-Aug-24 18:24N 33°44' W 118°17'0 0.0
2015-Aug-24 17:28N 33°44' W 118°17'0 0.0
2015-Aug-24 16:34N 33°44' W 118°17'0 0.0
2015-Aug-24 15:33N 33°44' W 118°17'0 0.0
2015-Aug-24 14:33N 33°44' W 118°17'  

Dump ship's entire track history